createdAt,value
2023-05-19T00:01:35.399Z,88.4124
2023-05-19T00:02:36.695Z,85.9863
2023-05-19T00:04:40.185Z,87.7256
2023-05-19T00:05:42.058Z,87.8188
2023-05-19T00:07:44.798Z,84.4915
2023-05-19T00:08:46.076Z,84.4082
2023-05-19T00:11:51.697Z,86.3129
2023-05-19T00:12:54.166Z,87.7209
2023-05-19T00:14:53.905Z,88.8099
2023-05-19T00:15:55.921Z,89.1148
2023-05-19T00:16:57.535Z,88.3291
2023-05-19T00:17:58.731Z,88.9048
2023-05-19T00:18:59.559Z,87.9170
2023-05-19T00:31:16.684Z,87.5603
2023-05-19T00:32:18.660Z,88.5826
2023-05-19T00:38:26.000Z,88.4850
2023-05-19T00:39:27.689Z,87.6912
2023-05-19T00:40:28.823Z,89.5715
2023-05-19T00:41:30.820Z,88.9623
2023-05-19T00:42:31.030Z,86.9916
2023-05-19T00:43:31.922Z,89.1019
2023-05-19T00:45:34.500Z,88.7937
2023-05-19T00:54:12.677Z,87.3456
2023-05-19T00:55:13.624Z,87.8474
2023-05-19T00:56:15.410Z,88.2520
2023-05-19T00:57:16.776Z,87.3737
2023-05-19T00:58:18.106Z,88.3210
2023-05-19T01:00:21.704Z,85.7115
2023-05-19T01:16:40.490Z,92.6517
2023-05-19T01:17:41.622Z,92.8104
2023-05-19T01:18:42.809Z,92.9996
2023-05-19T01:19:44.418Z,93.1667
2023-05-19T01:20:46.029Z,93.2918
2023-05-19T01:21:46.970Z,93.3866
2023-05-19T01:22:47.761Z,92.5024
2023-05-19T01:23:48.933Z,92.4715
2023-05-19T01:24:49.151Z,93.1572
2023-05-19T01:38:05.779Z,94.1151
2023-05-19T01:39:06.476Z,94.5849
2023-05-19T01:45:12.801Z,91.8906
2023-05-19T01:52:19.319Z,93.6897
2023-05-19T01:53:21.220Z,92.6801
2023-05-19T01:54:22.526Z,92.0057
2023-05-19T01:55:24.587Z,91.5864
2023-05-19T01:56:26.830Z,92.2342
2023-05-19T01:57:27.823Z,92.4355
2023-05-19T01:58:29.130Z,92.3636
2023-05-19T01:59:31.954Z,92.7199
2023-05-19T02:00:32.078Z,93.0480
2023-05-19T02:13:45.852Z,93.1338
2023-05-19T02:14:46.863Z,93.5345
2023-05-19T02:15:48.016Z,93.3768
2023-05-19T02:16:49.150Z,93.0507
2023-05-19T02:17:51.368Z,91.9423
2023-05-19T02:30:04.746Z,93.3592
2023-05-19T02:31:07.409Z,93.0809
2023-05-19T02:33:08.017Z,92.1812
2023-05-19T02:34:08.699Z,91.1676
2023-05-19T02:35:09.962Z,92.1937
2023-05-19T02:36:11.520Z,91.1742
2023-05-19T02:37:13.420Z,91.5701
2023-05-19T02:38:15.073Z,90.5525
2023-05-19T02:40:18.389Z,90.3623
2023-05-19T02:41:20.493Z,91.1575
2023-05-19T02:46:26.058Z,89.7671
2023-05-19T02:47:27.882Z,89.7399
2023-05-19T02:48:29.528Z,89.4350
2023-05-19T02:49:30.928Z,88.9935
2023-05-19T03:10:42.563Z,92.4133
2023-05-19T03:11:45.096Z,91.3389
2023-05-19T03:12:46.230Z,91.5539
2023-05-19T03:14:47.001Z,91.9570
2023-05-19T03:16:50.808Z,90.1722
2023-05-19T03:17:51.695Z,90.3961
2023-05-19T03:23:58.129Z,90.2813
2023-05-19T03:24:59.553Z,90.4535
2023-05-19T03:26:02.472Z,90.2663
2023-05-19T03:35:09.387Z,91.9585
2023-05-19T03:36:10.349Z,91.9773
2023-05-19T03:37:12.509Z,92.0225
2023-05-19T03:38:14.381Z,92.2331
2023-05-19T03:48:55.201Z,90.2537
2023-05-19T03:49:56.408Z,91.1796
2023-05-19T03:50:57.633Z,91.0699
2023-05-19T03:53:00.519Z,91.4168
2023-05-19T03:54:01.581Z,92.1146
2023-05-19T03:56:04.540Z,92.2312
2023-05-19T03:57:06.338Z,92.0360
2023-05-19T03:58:07.536Z,92.3840
2023-05-19T03:59:08.642Z,92.7394
2023-05-19T04:00:09.947Z,91.9808
2023-05-19T04:02:13.060Z,92.6069
2023-05-19T04:03:14.696Z,92.3450
2023-05-19T04:04:16.096Z,92.0525
2023-05-19T04:05:17.497Z,91.8537
2023-05-19T04:06:19.245Z,91.9001
2023-05-19T04:07:20.716Z,91.7028
2023-05-19T04:08:23.734Z,91.5139
2023-05-19T04:09:23.753Z,92.0871
2023-05-19T04:10:24.143Z,91.9797
2023-05-19T04:23:36.147Z,93.8004
2023-05-19T04:24:38.199Z,94.1236
2023-05-19T04:25:38.724Z,94.0725
2023-05-19T04:26:39.912Z,94.3655
2023-05-19T04:27:41.454Z,94.4993
2023-05-19T04:28:43.776Z,94.7497
2023-05-19T04:29:44.249Z,94.9934
2023-05-19T04:30:44.533Z,94.8586
2023-05-19T04:31:44.870Z,94.1080
2023-05-19T04:48:05.778Z,93.3152
2023-05-19T04:49:08.029Z,93.4103
2023-05-19T04:54:12.050Z,91.6016
2023-05-19T04:55:13.510Z,91.7634
2023-05-19T04:56:15.440Z,91.7765
2023-05-19T04:58:19.338Z,92.4260
2023-05-19T04:59:20.432Z,91.0101
2023-05-19T05:00:23.480Z,89.4018
2023-05-19T05:01:24.181Z,89.8589
2023-05-19T05:02:24.277Z,90.3541
2023-05-19T05:03:25.860Z,88.6300
2023-05-19T05:04:26.885Z,90.3271
2023-05-19T05:05:28.441Z,90.5557
2023-05-19T05:06:30.015Z,89.1122
2023-05-19T05:09:33.769Z,90.6293
2023-05-19T05:10:35.900Z,87.7796
2023-05-19T05:11:36.047Z,89.3059
2023-05-19T05:12:37.722Z,89.8537
2023-05-19T05:18:47.523Z,87.4533
2023-05-19T05:19:48.910Z,90.1979
2023-05-19T05:20:49.941Z,87.0008
2023-05-19T05:21:52.632Z,88.5529
2023-05-19T05:34:05.615Z,87.2055
2023-05-19T05:37:09.101Z,85.9650
2023-05-19T05:38:11.706Z,87.1563
2023-05-19T05:39:13.036Z,87.9520
2023-05-19T05:40:14.996Z,88.5126
2023-05-19T05:41:15.119Z,88.1802
2023-05-19T05:42:17.463Z,87.3733
2023-05-19T05:44:17.941Z,87.1887
2023-05-19T05:45:18.479Z,87.8353
2023-05-19T05:46:20.588Z,87.1347
2023-05-19T05:47:21.002Z,87.2386
2023-05-19T05:51:25.341Z,87.4372
2023-05-19T05:52:26.035Z,88.3624
2023-05-19T05:54:26.526Z,89.1344
2023-05-19T06:00:36.456Z,89.5385
2023-05-19T06:02:37.892Z,88.1755
2023-05-19T06:03:37.840Z,87.3883
2023-05-19T06:05:42.367Z,85.1625
2023-05-19T06:11:17.206Z,85.9894
2023-05-19T06:12:18.255Z,86.1880
2023-05-19T06:13:18.482Z,86.9345
2023-05-19T06:14:20.956Z,86.8997
2023-05-19T06:15:22.344Z,88.1375
2023-05-19T06:16:23.757Z,88.0323
2023-05-19T06:18:27.189Z,87.7689
2023-05-19T06:19:29.154Z,87.7797
2023-05-19T06:20:30.576Z,88.3001
2023-05-19T06:21:31.664Z,86.6410
2023-05-19T06:22:31.422Z,86.2500
2023-05-19T06:31:45.131Z,87.8717
2023-05-19T06:38:53.715Z,87.8840
2023-05-19T06:39:54.635Z,86.8755
2023-05-19T06:40:56.395Z,88.4749
2023-05-19T06:41:58.750Z,86.3962
2023-05-19T06:43:00.758Z,88.0029
2023-05-19T06:44:02.924Z,88.6152
2023-05-19T06:45:04.010Z,90.2628
2023-05-19T06:46:06.010Z,89.8458
2023-05-19T06:47:08.104Z,89.0057
2023-05-19T06:49:09.332Z,88.2986
2023-05-19T06:50:10.912Z,86.4604
2023-05-19T06:51:13.045Z,87.3277
2023-05-19T06:52:14.487Z,86.4275
2023-05-19T06:54:16.854Z,85.6597
2023-05-19T06:55:17.912Z,87.4184
2023-05-19T06:56:18.940Z,87.1277
2023-05-19T06:57:33.331Z,88.5075
2023-05-19T09:07:40.395Z,74.8732
2023-05-19T09:08:41.055Z,76.3433
2023-05-19T09:09:41.821Z,83.7276
2023-05-19T09:10:42.785Z,80.3226
2023-05-19T09:11:43.219Z,79.9364
2023-05-19T09:12:45.355Z,78.4543
2023-05-19T09:13:46.509Z,79.3463
2023-05-19T09:14:48.299Z,76.2583
2023-05-19T09:15:48.617Z,76.5839
2023-05-19T09:16:49.923Z,82.0235
2023-05-19T09:17:50.913Z,78.9962
2023-05-19T09:18:51.219Z,80.1578
2023-05-19T09:19:53.189Z,80.2439
2023-05-19T09:20:53.441Z,81.0216
2023-05-19T09:21:55.549Z,80.7177
2023-05-19T09:22:55.476Z,83.1998
2023-05-19T09:23:56.847Z,81.3703
2023-05-19T09:24:56.856Z,77.8458
2023-05-19T09:25:58.402Z,77.2015
2023-05-19T09:27:00.859Z,82.9973
2023-05-19T09:29:00.495Z,82.1594
2023-05-19T09:58:37.505Z,77.5566
2023-05-19T09:59:37.952Z,80.6147
2023-05-19T10:00:38.777Z,79.7766
2023-05-19T10:01:41.218Z,78.1994
2023-05-19T10:02:41.527Z,76.6614
2023-05-19T10:03:41.962Z,74.8248
2023-05-19T10:04:42.738Z,81.0177
2023-05-19T10:05:42.973Z,82.2123
2023-05-19T10:06:43.838Z,78.9054
2023-05-19T10:07:45.467Z,77.7140
2023-05-19T10:08:47.592Z,72.9888
2023-05-19T10:09:48.292Z,79.9457
2023-05-19T10:10:48.863Z,76.5251
2023-05-19T10:11:49.417Z,72.9336
2023-05-19T10:12:50.421Z,76.8605
2023-05-19T10:13:51.238Z,74.4261
2023-05-19T10:14:51.058Z,73.7867
2023-05-19T10:24:58.373Z,76.8762
2023-05-19T10:25:59.477Z,75.8357
2023-05-19T10:27:00.683Z,74.7986
2023-05-19T10:29:02.956Z,76.2176
2023-05-19T10:30:04.076Z,73.7552
2023-05-19T10:31:05.629Z,77.1476
2023-05-19T10:33:07.953Z,75.1462
2023-05-19T10:34:08.815Z,75.0986
2023-05-19T10:35:10.044Z,79.1564
2023-05-19T10:36:11.027Z,80.8238
2023-05-19T10:37:11.192Z,77.1131
2023-05-19T10:38:11.770Z,79.7215
2023-05-19T10:39:13.691Z,78.1032
2023-05-19T10:40:14.057Z,77.9906
2023-05-19T10:41:15.033Z,75.4152
2023-05-19T10:42:15.846Z,76.9800
2023-05-19T10:43:17.379Z,78.5178
2023-05-19T10:44:17.549Z,77.8643
2023-05-19T10:45:19.418Z,78.0490
2023-05-19T10:46:20.851Z,80.4992
2023-05-19T10:47:21.592Z,82.7066
2023-05-19T10:48:21.810Z,76.3305
2023-05-19T10:49:22.548Z,71.4369
2023-05-19T10:50:22.868Z,72.0053
2023-05-19T10:51:23.724Z,75.4503
2023-05-19T10:52:24.122Z,78.8290
2023-05-19T10:53:25.007Z,77.0384
2023-05-19T10:54:25.666Z,74.8482
2023-05-19T10:55:26.276Z,75.6998
2023-05-19T10:56:28.595Z,79.1466
2023-05-19T10:57:29.103Z,75.2958
2023-05-19T11:01:35.281Z,75.1447
2023-05-19T11:02:35.618Z,75.6754
2023-05-19T11:03:37.187Z,74.9145
2023-05-19T11:04:37.504Z,75.5710
2023-05-19T11:05:38.161Z,77.4640
2023-05-19T11:06:38.216Z,77.4401
2023-05-19T11:07:38.617Z,76.7835
2023-05-19T11:08:39.348Z,72.3931
2023-05-19T11:10:42.549Z,76.5981
2023-05-19T11:11:44.634Z,72.7808
2023-05-19T11:12:45.846Z,72.8216
2023-05-19T11:13:46.519Z,72.8648
2023-05-19T11:14:46.577Z,75.4454
2023-05-19T11:15:47.454Z,79.8980
2023-05-19T11:16:47.396Z,81.3755
2023-05-19T11:38:03.923Z,81.2746
2023-05-19T11:39:05.334Z,79.5089
2023-05-19T11:40:07.029Z,75.2381
2023-05-19T11:41:08.320Z,71.7657
2023-05-19T11:42:09.666Z,76.3308
2023-05-19T11:43:10.320Z,69.5273
2023-05-19T11:44:11.283Z,76.8671
2023-05-19T11:45:12.006Z,74.6611
2023-05-19T11:48:16.817Z,70.1661
2023-05-19T11:49:18.052Z,69.4708
2023-05-19T11:50:19.240Z,73.0108
2023-05-19T11:51:19.410Z,71.2328
2023-05-19T11:52:19.811Z,70.4902
2023-05-19T11:53:21.106Z,73.5383
2023-05-19T11:54:23.141Z,73.8832
2023-05-19T11:55:23.892Z,71.3885
2023-05-19T11:56:24.320Z,69.9810
2023-05-19T11:57:26.323Z,67.1714
2023-05-19T11:58:27.073Z,72.9069
2023-05-19T11:59:27.768Z,67.0572
2023-05-19T12:00:29.049Z,75.7995
2023-05-19T12:01:29.943Z,72.8811
2023-05-19T12:02:30.324Z,77.3609
2023-05-19T12:03:31.098Z,66.4671
2023-05-19T12:04:31.605Z,71.4141
2023-05-19T12:05:43.170Z,68.8609
2023-05-19T12:18:15.203Z,71.9537
2023-05-19T12:19:16.121Z,73.5881
2023-05-19T12:20:16.809Z,68.2608
2023-05-19T12:21:17.387Z,70.4283
2023-05-19T12:22:18.128Z,69.3458
2023-05-19T12:23:18.501Z,70.7673
2023-05-19T12:24:19.408Z,73.7912
2023-05-19T12:25:20.313Z,68.2357
2023-05-19T12:26:20.649Z,73.3995
2023-05-19T12:27:20.963Z,70.2280
2023-05-19T12:29:21.815Z,70.0613
2023-05-19T12:30:22.183Z,70.5732
2023-05-19T12:31:23.707Z,71.4847
2023-05-19T12:32:25.498Z,69.4874
2023-05-19T12:33:26.701Z,66.1786
2023-05-19T12:34:27.505Z,68.4052
2023-05-19T12:38:32.847Z,71.2566
2023-05-19T12:39:33.823Z,73.6377
2023-05-19T12:40:36.642Z,67.2864
2023-05-19T12:59:54.949Z,72.4827
2023-05-19T13:00:54.800Z,73.2329
2023-05-19T13:13:06.721Z,71.5731
2023-05-19T13:17:11.987Z,72.0944
2023-05-19T13:18:12.645Z,73.8598
2023-05-19T13:37:00.486Z,74.6625
2023-05-19T13:38:01.580Z,76.2491
2023-05-19T13:39:02.733Z,77.9824
2023-05-19T13:40:03.102Z,78.2424
2023-05-19T13:41:03.309Z,73.4118
2023-05-19T13:42:04.171Z,76.0793
2023-05-19T13:43:05.475Z,74.7399
2023-05-19T13:44:06.770Z,80.3583
2023-05-19T13:45:07.981Z,74.9420
2023-05-19T13:46:09.245Z,77.1036
2023-05-19T13:47:10.780Z,75.6850
2023-05-19T13:48:11.453Z,76.2409
2023-05-19T13:49:12.382Z,76.7673
2023-05-19T13:50:13.148Z,75.5187
2023-05-19T13:51:13.717Z,75.7043
2023-05-19T13:52:14.492Z,73.8628
2023-05-19T13:53:14.446Z,78.7856
2023-05-19T14:14:04.675Z,79.6776
2023-05-19T14:15:05.371Z,77.9148
2023-05-19T14:16:05.992Z,80.3840
2023-05-19T14:17:06.551Z,76.2533
2023-05-19T14:18:07.793Z,80.3425
2023-05-19T14:19:08.161Z,83.7720
2023-05-19T14:28:14.462Z,74.7515
2023-05-19T14:30:15.151Z,84.1368
2023-05-19T14:31:17.051Z,80.2057
2023-05-19T14:32:17.779Z,80.3309
2023-05-19T14:33:19.266Z,78.6871
2023-05-19T14:34:20.352Z,79.7190
2023-05-19T14:35:20.800Z,74.3322
2023-05-19T14:36:21.359Z,74.8113
2023-05-19T14:39:25.792Z,76.2893
2023-05-19T14:40:25.804Z,78.1710
2023-05-19T14:41:25.904Z,80.5408
2023-05-19T14:42:26.954Z,77.8872
2023-05-19T14:45:29.740Z,77.4151
2023-05-19T14:46:30.055Z,77.4708
2023-05-19T14:47:31.377Z,75.1846
2023-05-19T14:48:32.069Z,75.9460
2023-05-19T14:49:32.057Z,78.5518
2023-05-19T14:50:32.988Z,76.6207
2023-05-19T14:51:32.919Z,75.1959
2023-05-19T14:52:33.455Z,82.5461
2023-05-19T14:53:34.452Z,83.7625
2023-05-19T14:54:35.014Z,80.9346
2023-05-19T14:55:36.518Z,78.9124
2023-05-19T14:56:37.054Z,74.2138
2023-05-19T14:57:37.897Z,75.9709
2023-05-19T14:58:38.551Z,78.1283
2023-05-19T14:59:39.582Z,79.5520
2023-05-19T15:00:39.691Z,76.9712
2023-05-19T15:01:40.591Z,79.2924
2023-05-19T15:02:41.005Z,80.0926
2023-05-19T15:04:44.604Z,79.5782
2023-05-19T15:05:44.775Z,82.1253
2023-05-19T15:25:00.175Z,80.8912
2023-05-19T15:26:00.346Z,81.3238
2023-05-19T15:27:01.548Z,78.6768
2023-05-19T15:28:02.918Z,82.2993
2023-05-19T15:29:02.700Z,81.1447
2023-05-19T15:31:05.266Z,79.5298
2023-05-19T15:33:07.314Z,79.9063
2023-05-19T15:38:15.021Z,79.7337
2023-05-19T15:39:16.526Z,80.5579
2023-05-19T15:40:18.096Z,81.9606
2023-05-19T15:41:19.029Z,79.3206
2023-05-19T15:42:20.471Z,77.4595
2023-05-19T15:43:21.109Z,79.5800
2023-05-19T15:45:21.946Z,79.7392
2023-05-19T15:46:23.563Z,78.4434
2023-05-19T15:48:26.968Z,77.6120
2023-05-19T15:49:29.852Z,78.2047
2023-05-19T16:00:43.791Z,80.7031
2023-05-19T16:01:44.454Z,80.8055
2023-05-19T16:02:44.525Z,78.3722
2023-05-19T16:03:46.895Z,80.9462
2023-05-19T16:04:47.121Z,76.0503
2023-05-19T16:05:48.231Z,77.6435
2023-05-19T16:06:48.743Z,81.2475
2023-05-19T16:07:48.926Z,76.7883
2023-05-19T16:08:51.758Z,79.1767
2023-05-19T16:09:53.177Z,78.9106
2023-05-19T16:10:55.685Z,82.6818
2023-05-19T16:11:56.169Z,80.8690
2023-05-19T16:21:05.640Z,77.0978
2023-05-19T16:22:06.166Z,74.3285
2023-05-19T16:23:07.628Z,76.3904
2023-05-19T16:24:08.624Z,76.2164
2023-05-19T16:25:08.705Z,77.2471
2023-05-19T16:26:09.703Z,76.2952
2023-05-19T16:27:11.190Z,75.7601
2023-05-19T16:28:12.046Z,75.0334
2023-05-19T16:29:14.133Z,79.5018
2023-05-19T16:30:14.889Z,77.2096
2023-05-19T16:31:16.356Z,75.0648
2023-05-19T16:32:16.864Z,75.7457
2023-05-19T16:42:26.517Z,77.2848
2023-05-19T16:43:28.875Z,82.6697
2023-05-19T16:44:28.985Z,83.3050
2023-05-19T16:52:38.295Z,83.5370
2023-05-19T16:53:41.028Z,82.5764
2023-05-19T16:54:41.621Z,81.3343
2023-05-19T17:09:57.231Z,79.2274
2023-05-19T17:10:57.368Z,80.0951
2023-05-19T17:11:57.193Z,80.1368
2023-05-19T17:14:01.092Z,81.4837
2023-05-19T17:15:00.757Z,80.0011
2023-05-19T17:17:03.769Z,79.3395
2023-05-19T17:18:05.362Z,81.5555
2023-05-19T17:19:07.248Z,80.1893
2023-05-19T17:20:07.753Z,79.6354
2023-05-19T17:21:10.019Z,80.6730
2023-05-19T17:22:11.400Z,81.4883
2023-05-19T17:23:14.332Z,83.2613
2023-05-19T17:25:16.520Z,80.0723
2023-05-19T17:26:18.499Z,80.6423
2023-05-19T17:38:33.182Z,81.0702
2023-05-19T17:39:33.575Z,80.5803
2023-05-19T17:41:36.428Z,82.1726
2023-05-19T17:42:38.736Z,80.3172
2023-05-19T17:44:42.469Z,82.4952
2023-05-19T17:45:43.671Z,83.7357
2023-05-19T17:46:44.930Z,82.6832
2023-05-19T17:47:47.000Z,80.2768
2023-05-19T17:48:47.340Z,80.4251
2023-05-19T17:49:51.642Z,81.4233
2023-05-19T18:05:08.384Z,82.5452
2023-05-19T18:06:08.834Z,79.4990
2023-05-19T18:07:10.102Z,81.7186
2023-05-19T18:08:12.536Z,80.8939
2023-05-19T18:09:14.503Z,80.3565
2023-05-19T18:19:26.587Z,80.5987
2023-05-19T18:20:28.416Z,80.5152
2023-05-19T18:21:30.708Z,80.0837
2023-05-19T18:22:31.129Z,83.3456
2023-05-19T18:23:33.018Z,81.5070
2023-05-19T18:24:34.058Z,79.9978
2023-05-19T18:25:35.788Z,81.4383
2023-05-19T18:26:36.681Z,80.9633
2023-05-19T18:27:38.197Z,80.3109
2023-05-19T18:28:40.515Z,80.0330
2023-05-19T18:29:41.527Z,81.3509
2023-05-19T18:30:42.997Z,81.3556
2023-05-19T18:31:45.377Z,82.1482
2023-05-19T18:32:46.950Z,82.2152
2023-05-19T18:47:04.392Z,83.4977
2023-05-19T18:48:06.261Z,81.5003
2023-05-19T18:52:11.575Z,84.0383
2023-05-19T18:53:13.780Z,83.7858
2023-05-19T18:55:15.004Z,83.0239
2023-05-19T18:56:16.947Z,83.3924
2023-05-19T18:57:18.049Z,82.5867
2023-05-19T18:58:19.953Z,83.5756
2023-05-19T18:59:22.502Z,84.1249
2023-05-19T19:00:24.545Z,83.0708
2023-05-19T19:01:27.181Z,83.8607
2023-05-19T19:03:29.812Z,85.2843
2023-05-19T19:04:31.511Z,82.1275
2023-05-19T19:06:32.281Z,83.3901
2023-05-19T19:07:32.885Z,82.7594
2023-05-19T19:15:42.321Z,85.0890
2023-05-19T19:16:44.103Z,86.6231
2023-05-19T19:17:45.858Z,83.3472
2023-05-19T19:18:47.622Z,85.7670
2023-05-19T19:19:49.729Z,84.5017
2023-05-19T19:20:50.819Z,83.5611
2023-05-19T19:21:52.743Z,82.7408
2023-05-19T19:22:54.137Z,83.1291
2023-05-19T19:23:55.839Z,83.4682
2023-05-19T19:25:58.359Z,83.6938
2023-05-19T19:27:00.474Z,84.2658
2023-05-19T19:29:03.313Z,84.2695
2023-05-19T19:30:05.307Z,85.7671
2023-05-19T19:31:05.827Z,86.2658
2023-05-19T19:32:08.272Z,86.0471
2023-05-19T19:33:10.334Z,86.9447
2023-05-19T19:40:15.607Z,87.1421
2023-05-19T19:47:28.993Z,85.1750
2023-05-19T19:48:30.688Z,86.8342
2023-05-19T19:49:32.515Z,86.6922
2023-05-19T19:56:38.004Z,85.9046
2023-05-19T19:58:40.241Z,87.2370
2023-05-19T19:59:40.527Z,87.2701
2023-05-19T20:00:42.704Z,86.5187
2023-05-19T20:01:44.905Z,86.9940
2023-05-19T20:05:48.451Z,86.8890
2023-05-19T20:06:49.442Z,88.7370
2023-05-19T20:07:50.797Z,89.6558
2023-05-19T20:08:52.736Z,88.3612
2023-05-19T20:09:54.282Z,87.4266
2023-05-19T20:29:18.528Z,83.7839
2023-05-19T20:37:25.937Z,86.8670
2023-05-19T20:38:25.981Z,88.5090
2023-05-19T20:39:27.926Z,87.8470
2023-05-19T20:40:30.102Z,85.9174
2023-05-19T20:41:32.225Z,87.3383
2023-05-19T21:04:01.550Z,88.1390
2023-05-19T21:05:02.374Z,87.5066
2023-05-19T21:06:03.508Z,87.3421
2023-05-19T21:07:05.298Z,88.4243
2023-05-19T21:15:13.447Z,87.4288
2023-05-19T21:16:14.541Z,86.9565
2023-05-19T21:17:15.757Z,88.3267
2023-05-19T21:18:16.885Z,88.1998
2023-05-19T21:19:18.922Z,87.7102
2023-05-19T21:23:24.788Z,87.1118
2023-05-19T21:24:24.736Z,89.3760
2023-05-19T21:25:25.543Z,89.5176
2023-05-19T21:26:26.464Z,89.4337
2023-05-19T21:27:27.381Z,89.3778
2023-05-19T21:28:29.244Z,89.0435
2023-05-19T21:29:30.241Z,89.5139
2023-05-19T21:31:34.474Z,90.9729
2023-05-19T21:32:35.815Z,89.0843
2023-05-19T21:33:36.820Z,88.7505
2023-05-19T21:34:37.560Z,89.5372
2023-05-19T21:35:37.654Z,87.7865
2023-05-19T21:37:41.088Z,90.8623
2023-05-19T21:38:43.406Z,91.1019
2023-05-19T21:39:43.797Z,90.8331
2023-05-19T21:40:45.283Z,90.7136
2023-05-19T21:42:48.425Z,91.5187
2023-05-19T21:43:49.822Z,90.9320
2023-05-19T21:44:51.616Z,91.3393
2023-05-19T21:45:52.398Z,90.4484
2023-05-19T22:00:08.185Z,92.4530
2023-05-19T22:01:10.136Z,92.2369
2023-05-19T22:02:12.721Z,92.2267
2023-05-19T22:04:12.826Z,91.6471
2023-05-19T22:05:14.197Z,92.3663
2023-05-19T22:06:14.865Z,92.3425
2023-05-19T22:08:18.293Z,91.4249
2023-05-19T22:22:35.465Z,88.3673
2023-05-19T22:23:36.629Z,89.1097
2023-05-19T22:24:37.588Z,89.9017
2023-05-19T22:25:39.325Z,91.1292
2023-05-19T22:26:40.121Z,90.2145
2023-05-19T22:27:42.761Z,88.9553
2023-05-19T22:41:59.163Z,90.6556
2023-05-19T22:43:00.774Z,91.4179
2023-05-19T22:44:02.096Z,92.0524
2023-05-19T22:45:04.951Z,93.1168
2023-05-19T22:46:06.279Z,92.7217
2023-05-19T22:47:07.270Z,92.7375
2023-05-19T22:48:09.192Z,93.1131
2023-05-19T22:49:09.540Z,93.3907
2023-05-19T23:00:24.922Z,93.0392
2023-05-19T23:11:34.177Z,94.7938
2023-05-19T23:12:34.415Z,94.7631
2023-05-19T23:14:36.962Z,94.6965
2023-05-19T23:15:37.616Z,94.9217
2023-05-19T23:20:42.161Z,95.6133
2023-05-19T23:21:43.296Z,95.4911
2023-05-19T23:22:44.271Z,95.5231
2023-05-19T23:23:44.295Z,95.5998
2023-05-19T23:24:45.781Z,95.6749
2023-05-19T23:26:49.506Z,95.4884
2023-05-19T23:27:51.354Z,95.3329
2023-05-19T23:28:52.639Z,95.4137
2023-05-19T23:29:54.776Z,95.4907
2023-05-19T23:30:57.025Z,95.6609
2023-05-19T23:31:58.972Z,95.1396
2023-05-19T23:43:11.144Z,95.9718
2023-05-19T23:44:12.992Z,95.5070
2023-05-19T23:45:14.234Z,95.4205
2023-05-19T23:46:16.273Z,95.4883
2023-05-19T23:47:18.157Z,95.5963
2023-05-19T23:48:19.105Z,95.6472
2023-05-19T23:49:20.420Z,95.6349
2023-05-19T23:50:21.094Z,95.5152
2023-05-19T23:51:23.152Z,95.4812
2023-05-19T23:52:24.524Z,95.4612
2023-05-19T23:54:28.171Z,95.5367
2023-05-19T23:55:30.384Z,95.6258
2023-05-19T23:56:31.599Z,95.6673
2023-05-19T23:57:34.134Z,95.7277
2023-05-19T23:58:35.622Z,95.8976
2023-05-19T23:59:36.764Z,95.9474
